Terminal Aerodrome Forecast
Issued by NWS

Home | Current Version | Previous Version | Text Only | Print | Product List | Glossary On
Versions: 1 2 3 4 5 6 7 8 9 10 11 12 13 14 15 16 17 18 19 20 21 22
000
FTUS46 KSEW 222300
TAFHQM
TAF
KHQM 222323Z 2300/2324 08006KT P6SM SCT025 BKN120
     FM230600 07008KT P6SM BKN050 OVC100
     FM231000 12008KT P6SM -RA BKN035 OVC050
     FM231600 16010KT 4SM -RA BR OVC020
     FM231900 18010KT 3SM RA BR OVC008=

USA.gov is the U.S. government's official web portal to all federal, state and local government web resources and services.